sensor_id;sensor_type;location;lat;lon;timestamp;P1;durP1;ratioP1;P2;durP2;ratioP2
58643;SDS011;44411;49.994;8.660;2023-03-01T12:52:46;16.98;;;12.63;;
58643;SDS011;44411;49.994;8.660;2023-03-01T12:55:36;16.02;;;12.30;;
58643;SDS011;44411;49.994;8.660;2023-03-01T13:11:42;15.73;;;12.27;;
58643;SDS011;44411;49.994;8.660;2023-03-01T13:16:45;18.35;;;12.63;;
58643;SDS011;44411;49.994;8.660;2023-03-01T13:19:18;14.60;;;11.82;;
58643;SDS011;44411;49.994;8.660;2023-03-01T13:21:44;18.75;;;12.45;;
58643;SDS011;44411;49.994;8.660;2023-03-01T13:24:23;16.42;;;11.68;;
58643;SDS011;44411;49.994;8.660;2023-03-01T13:29:45;14.35;;;11.07;;
58643;SDS011;44411;49.994;8.660;2023-03-01T13:35:41;13.65;;;11.25;;
58643;SDS011;44411;49.994;8.660;2023-03-01T13:37:48;14.63;;;11.35;;
58643;SDS011;44411;49.994;8.660;2023-03-01T13:43:22;14.35;;;11.15;;
58643;SDS011;44411;49.994;8.660;2023-03-01T13:45:57;14.57;;;10.45;;
58643;SDS011;44411;49.994;8.660;2023-03-01T13:48:25;14.73;;;10.85;;
58643;SDS011;44411;49.994;8.660;2023-03-01T13:51:01;15.83;;;10.57;;
58643;SDS011;44411;49.994;8.660;2023-03-01T13:53:30;14.75;;;10.13;;
58643;SDS011;44411;49.994;8.660;2023-03-01T13:56:00;13.50;;;10.43;;
58643;SDS011;44411;49.994;8.660;2023-03-01T13:58:32;14.48;;;10.65;;
58643;SDS011;44411;49.994;8.660;2023-03-01T14:01:18;12.18;;;9.95;;
58643;SDS011;44411;49.994;8.660;2023-03-01T14:03:47;13.63;;;10.57;;
58643;SDS011;44411;49.994;8.660;2023-03-01T14:06:16;12.20;;;9.90;;
58643;SDS011;44411;49.994;8.660;2023-03-01T14:08:46;14.07;;;10.20;;
58643;SDS011;44411;49.994;8.660;2023-03-01T14:20:41;14.35;;;11.60;;
58643;SDS011;44411;49.994;8.660;2023-03-01T14:23:11;12.88;;;9.82;;
58643;SDS011;44411;49.994;8.660;2023-03-01T14:25:39;13.02;;;10.95;;
58643;SDS011;44411;49.994;8.660;2023-03-01T14:28:23;13.38;;;9.77;;
58643;SDS011;44411;49.994;8.660;2023-03-01T14:30:52;14.02;;;9.68;;
58643;SDS011;44411;49.994;8.660;2023-03-01T14:38:34;15.27;;;10.85;;
58643;SDS011;44411;49.994;8.660;2023-03-01T14:41:07;13.50;;;10.52;;
58643;SDS011;44411;49.994;8.660;2023-03-01T14:43:35;12.00;;;9.93;;
58643;SDS011;44411;49.994;8.660;2023-03-01T14:46:03;13.23;;;11.10;;
58643;SDS011;44411;49.994;8.660;2023-03-01T14:48:28;11.20;;;9.80;;
58643;SDS011;44411;49.994;8.660;2023-03-01T14:50:56;12.40;;;10.15;;
58643;SDS011;44411;49.994;8.660;2023-03-01T14:53:25;13.55;;;9.93;;
58643;SDS011;44411;49.994;8.660;2023-03-01T14:55:54;13.07;;;9.98;;
58643;SDS011;44411;49.994;8.660;2023-03-01T14:58:23;13.90;;;10.65;;
58643;SDS011;44411;49.994;8.660;2023-03-01T15:00:51;15.70;;;10.73;;
58643;SDS011;44411;49.994;8.660;2023-03-01T15:03:32;14.27;;;10.50;;
58643;SDS011;44411;49.994;8.660;2023-03-01T15:06:00;14.13;;;10.38;;
58643;SDS011;44411;49.994;8.660;2023-03-01T15:08:27;13.93;;;10.95;;
58643;SDS011;44411;49.994;8.660;2023-03-01T15:13:42;14.00;;;10.43;;
58643;SDS011;44411;49.994;8.660;2023-03-01T15:16:15;15.13;;;9.95;;
58643;SDS011;44411;49.994;8.660;2023-03-01T15:18:44;13.57;;;11.15;;
58643;SDS011;44411;49.994;8.660;2023-03-01T15:21:16;15.80;;;10.40;;
58643;SDS011;44411;49.994;8.660;2023-03-01T15:23:41;20.33;;;11.10;;
58643;SDS011;44411;49.994;8.660;2023-03-01T15:26:21;14.38;;;10.57;;
58643;SDS011;44411;49.994;8.660;2023-03-01T15:28:49;13.45;;;10.90;;
58643;SDS011;44411;49.994;8.660;2023-03-01T15:33:49;14.13;;;11.68;;
58643;SDS011;44411;49.994;8.660;2023-03-01T15:39:03;13.98;;;10.88;;
58643;SDS011;44411;49.994;8.660;2023-03-01T15:41:45;12.40;;;10.40;;
58643;SDS011;44411;49.994;8.660;2023-03-01T15:44:16;16.58;;;10.98;;
58643;SDS011;44411;49.994;8.660;2023-03-01T15:46:50;13.90;;;11.52;;
58643;SDS011;44411;49.994;8.660;2023-03-01T15:49:26;12.27;;;10.82;;
58643;SDS011;44411;49.994;8.660;2023-03-01T15:51:55;18.63;;;11.32;;
58643;SDS011;44411;49.994;8.660;2023-03-01T15:54:22;13.68;;;10.45;;
58643;SDS011;44411;49.994;8.660;2023-03-01T15:56:50;13.20;;;11.10;;
58643;SDS011;44411;49.994;8.660;2023-03-01T15:59:16;15.35;;;12.10;;
58643;SDS011;44411;49.994;8.660;2023-03-01T16:01:41;17.13;;;11.85;;
58643;SDS011;44411;49.994;8.660;2023-03-01T16:04:11;14.02;;;11.43;;
58643;SDS011;44411;49.994;8.660;2023-03-01T16:06:46;17.77;;;12.07;;
58643;SDS011;44411;49.994;8.660;2023-03-01T16:09:12;15.30;;;10.57;;
58643;SDS011;44411;49.994;8.660;2023-03-01T16:11:37;15.52;;;11.80;;
58643;SDS011;44411;49.994;8.660;2023-03-01T16:14:04;13.15;;;10.27;;
58643;SDS011;44411;49.994;8.660;2023-03-01T16:16:30;17.08;;;11.57;;
58643;SDS011;44411;49.994;8.660;2023-03-01T16:18:55;15.80;;;12.30;;
58643;SDS011;44411;49.994;8.660;2023-03-01T16:21:24;14.95;;;10.75;;
58643;SDS011;44411;49.994;8.660;2023-03-01T16:23:50;16.10;;;10.38;;
58643;SDS011;44411;49.994;8.660;2023-03-01T16:26:16;15.43;;;11.23;;
58643;SDS011;44411;49.994;8.660;2023-03-01T16:28:43;12.93;;;11.02;;
58643;SDS011;44411;49.994;8.660;2023-03-01T16:31:09;17.13;;;12.55;;
58643;SDS011;44411;49.994;8.660;2023-03-01T16:33:36;16.77;;;12.00;;
58643;SDS011;44411;49.994;8.660;2023-03-01T16:36:06;16.65;;;12.23;;
58643;SDS011;44411;49.994;8.660;2023-03-01T16:38:33;18.10;;;12.40;;
58643;SDS011;44411;49.994;8.660;2023-03-01T16:40:59;16.63;;;12.50;;
58643;SDS011;44411;49.994;8.660;2023-03-01T16:43:25;15.63;;;11.60;;
58643;SDS011;44411;49.994;8.660;2023-03-01T16:45:50;17.33;;;12.23;;
58643;SDS011;44411;49.994;8.660;2023-03-01T16:48:16;16.02;;;11.68;;
58643;SDS011;44411;49.994;8.660;2023-03-01T16:50:41;14.45;;;11.90;;
58643;SDS011;44411;49.994;8.660;2023-03-01T16:53:07;15.90;;;11.25;;
58643;SDS011;44411;49.994;8.660;2023-03-01T16:55:32;17.27;;;12.98;;
58643;SDS011;44411;49.994;8.660;2023-03-01T16:57:58;16.90;;;12.85;;
58643;SDS011;44411;49.994;8.660;2023-03-01T17:00:23;17.13;;;12.52;;
58643;SDS011;44411;49.994;8.660;2023-03-01T17:02:49;17.48;;;12.95;;
58643;SDS011;44411;49.994;8.660;2023-03-01T17:05:14;17.52;;;13.30;;
58643;SDS011;44411;49.994;8.660;2023-03-01T17:07:39;18.13;;;13.00;;
58643;SDS011;44411;49.994;8.660;2023-03-01T17:10:06;17.42;;;12.60;;
58643;SDS011;44411;49.994;8.660;2023-03-01T17:12:33;18.70;;;13.75;;
58643;SDS011;44411;49.994;8.660;2023-03-01T17:14:59;21.65;;;14.27;;
58643;SDS011;44411;49.994;8.660;2023-03-01T17:17:24;17.83;;;12.88;;
58643;SDS011;44411;49.994;8.660;2023-03-01T17:19:50;17.95;;;13.82;;
58643;SDS011;44411;49.994;8.660;2023-03-01T17:22:16;19.33;;;14.38;;
58643;SDS011;44411;49.994;8.660;2023-03-01T17:24:42;19.60;;;13.52;;
58643;SDS011;44411;49.994;8.660;2023-03-01T17:27:08;17.13;;;13.40;;
58643;SDS011;44411;49.994;8.660;2023-03-01T17:29:37;17.85;;;13.38;;
58643;SDS011;44411;49.994;8.660;2023-03-01T17:32:03;18.00;;;13.57;;
58643;SDS011;44411;49.994;8.660;2023-03-01T17:34:30;20.92;;;13.65;;
58643;SDS011;44411;49.994;8.660;2023-03-01T17:36:56;20.13;;;14.32;;
58643;SDS011;44411;49.994;8.660;2023-03-01T17:39:22;20.92;;;13.70;;
58643;SDS011;44411;49.994;8.660;2023-03-01T17:41:52;17.20;;;12.40;;
58643;SDS011;44411;49.994;8.660;2023-03-01T17:44:17;17.83;;;13.55;;
58643;SDS011;44411;49.994;8.660;2023-03-01T17:46:43;20.67;;;12.98;;
58643;SDS011;44411;49.994;8.660;2023-03-01T17:49:08;20.20;;;14.30;;
58643;SDS011;44411;49.994;8.660;2023-03-01T17:51:34;18.92;;;13.65;;
58643;SDS011;44411;49.994;8.660;2023-03-01T17:53:59;21.92;;;14.73;;
58643;SDS011;44411;49.994;8.660;2023-03-01T17:56:24;19.27;;;13.73;;
58643;SDS011;44411;49.994;8.660;2023-03-01T17:58:50;17.15;;;12.80;;
58643;SDS011;44411;49.994;8.660;2023-03-01T18:01:17;17.70;;;13.40;;
58643;SDS011;44411;49.994;8.660;2023-03-01T18:03:44;17.95;;;13.98;;
58643;SDS011;44411;49.994;8.660;2023-03-01T18:06:11;20.50;;;13.52;;
58643;SDS011;44411;49.994;8.660;2023-03-01T18:08:36;18.17;;;12.23;;
58643;SDS011;44411;49.994;8.660;2023-03-01T18:11:02;18.30;;;12.95;;
58643;SDS011;44411;49.994;8.660;2023-03-01T18:13:27;20.40;;;13.48;;
58643;SDS011;44411;49.994;8.660;2023-03-01T18:15:52;18.70;;;13.23;;
58643;SDS011;44411;49.994;8.660;2023-03-01T18:18:24;19.80;;;13.57;;
58643;SDS011;44411;49.994;8.660;2023-03-01T18:20:59;19.75;;;13.52;;
58643;SDS011;44411;49.994;8.660;2023-03-01T18:23:26;19.45;;;13.45;;
58643;SDS011;44411;49.994;8.660;2023-03-01T18:25:56;18.52;;;12.60;;
58643;SDS011;44411;49.994;8.660;2023-03-01T18:28:23;18.92;;;12.98;;
58643;SDS011;44411;49.994;8.660;2023-03-01T18:30:54;20.55;;;13.27;;
58643;SDS011;44411;49.994;8.660;2023-03-01T18:33:28;22.20;;;14.00;;
58643;SDS011;44411;49.994;8.660;2023-03-01T18:35:54;18.10;;;13.85;;
58643;SDS011;44411;49.994;8.660;2023-03-01T18:38:20;20.13;;;13.43;;
58643;SDS011;44411;49.994;8.660;2023-03-01T18:40:46;18.98;;;13.27;;
58643;SDS011;44411;49.994;8.660;2023-03-01T18:43:12;18.38;;;13.90;;
58643;SDS011;44411;49.994;8.660;2023-03-01T18:45:37;18.15;;;12.48;;
58643;SDS011;44411;49.994;8.660;2023-03-01T18:48:03;19.50;;;12.82;;
58643;SDS011;44411;49.994;8.660;2023-03-01T18:50:28;20.55;;;13.57;;
58643;SDS011;44411;49.994;8.660;2023-03-01T18:52:54;19.33;;;13.50;;
58643;SDS011;44411;49.994;8.660;2023-03-01T18:55:19;17.90;;;12.70;;
58643;SDS011;44411;49.994;8.660;2023-03-01T18:57:45;20.20;;;13.40;;
58643;SDS011;44411;49.994;8.660;2023-03-01T19:00:10;18.35;;;13.00;;
58643;SDS011;44411;49.994;8.660;2023-03-01T19:02:36;18.42;;;13.23;;
58643;SDS011;44411;49.994;8.660;2023-03-01T19:05:02;22.10;;;13.23;;
58643;SDS011;44411;49.994;8.660;2023-03-01T19:07:27;19.83;;;13.23;;
58643;SDS011;44411;49.994;8.660;2023-03-01T19:09:53;17.10;;;12.75;;
58643;SDS011;44411;49.994;8.660;2023-03-01T19:15:13;18.48;;;12.98;;
58643;SDS011;44411;49.994;8.660;2023-03-01T19:17:40;20.98;;;13.73;;
58643;SDS011;44411;49.994;8.660;2023-03-01T19:20:06;19.15;;;13.88;;
58643;SDS011;44411;49.994;8.660;2023-03-01T19:22:32;18.73;;;13.52;;
58643;SDS011;44411;49.994;8.660;2023-03-01T19:24:57;20.27;;;13.02;;
58643;SDS011;44411;49.994;8.660;2023-03-01T19:27:23;20.38;;;13.60;;
58643;SDS011;44411;49.994;8.660;2023-03-01T19:29:48;22.67;;;13.35;;
58643;SDS011;44411;49.994;8.660;2023-03-01T19:32:14;20.27;;;14.05;;
58643;SDS011;44411;49.994;8.660;2023-03-01T19:34:39;19.50;;;14.25;;
58643;SDS011;44411;49.994;8.660;2023-03-01T19:37:06;20.75;;;13.55;;
58643;SDS011;44411;49.994;8.660;2023-03-01T19:39:34;19.23;;;13.20;;
58643;SDS011;44411;49.994;8.660;2023-03-01T19:42:00;18.42;;;14.27;;
58643;SDS011;44411;49.994;8.660;2023-03-01T19:44:25;22.55;;;14.27;;
58643;SDS011;44411;49.994;8.660;2023-03-01T19:46:55;19.60;;;13.23;;
58643;SDS011;44411;49.994;8.660;2023-03-01T19:49:21;18.63;;;13.27;;
58643;SDS011;44411;49.994;8.660;2023-03-01T19:51:47;19.38;;;13.30;;
58643;SDS011;44411;49.994;8.660;2023-03-01T19:54:13;18.95;;;13.40;;
58643;SDS011;44411;49.994;8.660;2023-03-01T19:56:43;21.23;;;14.23;;
58643;SDS011;44411;49.994;8.660;2023-03-01T19:59:09;22.52;;;14.73;;
58643;SDS011;44411;49.994;8.660;2023-03-01T20:01:35;20.52;;;13.73;;
58643;SDS011;44411;49.994;8.660;2023-03-01T20:04:01;23.45;;;15.07;;
58643;SDS011;44411;49.994;8.660;2023-03-01T20:06:30;17.58;;;12.95;;
58643;SDS011;44411;49.994;8.660;2023-03-01T20:09:03;20.60;;;14.02;;
58643;SDS011;44411;49.994;8.660;2023-03-01T20:11:29;23.92;;;14.73;;
58643;SDS011;44411;49.994;8.660;2023-03-01T20:13:55;22.88;;;14.35;;
58643;SDS011;44411;49.994;8.660;2023-03-01T20:16:21;19.98;;;14.18;;
58643;SDS011;44411;49.994;8.660;2023-03-01T20:18:48;22.77;;;14.73;;
58643;SDS011;44411;49.994;8.660;2023-03-01T20:21:13;18.25;;;13.30;;
58643;SDS011;44411;49.994;8.660;2023-03-01T20:23:42;18.38;;;13.63;;
58643;SDS011;44411;49.994;8.660;2023-03-01T20:26:08;21.70;;;14.40;;
58643;SDS011;44411;49.994;8.660;2023-03-01T20:28:39;21.65;;;13.45;;
58643;SDS011;44411;49.994;8.660;2023-03-01T20:31:08;17.80;;;12.55;;
58643;SDS011;44411;49.994;8.660;2023-03-01T20:33:35;23.85;;;15.27;;
58643;SDS011;44411;49.994;8.660;2023-03-01T20:36:01;21.00;;;13.82;;
58643;SDS011;44411;49.994;8.660;2023-03-01T20:38:27;20.38;;;14.80;;
58643;SDS011;44411;49.994;8.660;2023-03-01T20:40:56;18.30;;;13.30;;
58643;SDS011;44411;49.994;8.660;2023-03-01T20:43:26;20.55;;;14.27;;
58643;SDS011;44411;49.994;8.660;2023-03-01T20:45:51;22.33;;;14.23;;
58643;SDS011;44411;49.994;8.660;2023-03-01T20:48:17;18.98;;;13.32;;
58643;SDS011;44411;49.994;8.660;2023-03-01T20:50:42;20.23;;;14.05;;
58643;SDS011;44411;49.994;8.660;2023-03-01T20:53:08;18.45;;;12.88;;
58643;SDS011;44411;49.994;8.660;2023-03-01T20:55:33;19.70;;;13.57;;
58643;SDS011;44411;49.994;8.660;2023-03-01T20:57:58;22.58;;;14.50;;
58643;SDS011;44411;49.994;8.660;2023-03-01T21:00:24;20.42;;;13.63;;
58643;SDS011;44411;49.994;8.660;2023-03-01T21:02:49;22.55;;;15.32;;
58643;SDS011;44411;49.994;8.660;2023-03-01T21:05:15;18.73;;;13.38;;
58643;SDS011;44411;49.994;8.660;2023-03-01T21:07:40;19.75;;;14.27;;
58643;SDS011;44411;49.994;8.660;2023-03-01T21:10:06;22.23;;;14.07;;
58643;SDS011;44411;49.994;8.660;2023-03-01T21:12:33;21.30;;;14.18;;
58643;SDS011;44411;49.994;8.660;2023-03-01T21:14:58;20.52;;;13.85;;
58643;SDS011;44411;49.994;8.660;2023-03-01T21:17:23;20.35;;;14.15;;
58643;SDS011;44411;49.994;8.660;2023-03-01T21:19:49;23.48;;;15.05;;
58643;SDS011;44411;49.994;8.660;2023-03-01T21:22:15;19.45;;;14.23;;
58643;SDS011;44411;49.994;8.660;2023-03-01T21:24:40;19.45;;;14.05;;
58643;SDS011;44411;49.994;8.660;2023-03-01T21:27:06;21.90;;;14.05;;
58643;SDS011;44411;49.994;8.660;2023-03-01T21:29:32;19.27;;;14.45;;
58643;SDS011;44411;49.994;8.660;2023-03-01T21:31:58;21.65;;;14.00;;
58643;SDS011;44411;49.994;8.660;2023-03-01T21:34:24;23.40;;;16.02;;
58643;SDS011;44411;49.994;8.660;2023-03-01T21:36:49;22.77;;;15.00;;
58643;SDS011;44411;49.994;8.660;2023-03-01T21:39:15;21.75;;;14.90;;
58643;SDS011;44411;49.994;8.660;2023-03-01T21:41:40;23.98;;;14.82;;
58643;SDS011;44411;49.994;8.660;2023-03-01T21:44:06;19.48;;;14.20;;
58643;SDS011;44411;49.994;8.660;2023-03-01T21:46:32;23.35;;;14.25;;
58643;SDS011;44411;49.994;8.660;2023-03-01T21:49:01;25.15;;;15.38;;
58643;SDS011;44411;49.994;8.660;2023-03-01T21:51:28;24.55;;;15.98;;
58643;SDS011;44411;49.994;8.660;2023-03-01T21:53:55;22.02;;;14.90;;
58643;SDS011;44411;49.994;8.660;2023-03-01T21:56:23;21.75;;;13.48;;
58643;SDS011;44411;49.994;8.660;2023-03-01T21:58:51;21.30;;;14.73;;
58643;SDS011;44411;49.994;8.660;2023-03-01T22:01:18;23.15;;;14.98;;
58643;SDS011;44411;49.994;8.660;2023-03-01T22:03:48;23.90;;;14.68;;
58643;SDS011;44411;49.994;8.660;2023-03-01T22:06:18;22.33;;;15.40;;
58643;SDS011;44411;49.994;8.660;2023-03-01T22:11:16;23.58;;;14.70;;
58643;SDS011;44411;49.994;8.660;2023-03-01T22:13:44;21.55;;;15.38;;
58643;SDS011;44411;49.994;8.660;2023-03-01T22:16:11;20.42;;;14.35;;
58643;SDS011;44411;49.994;8.660;2023-03-01T22:18:36;21.75;;;13.70;;
58643;SDS011;44411;49.994;8.660;2023-03-01T22:21:03;23.50;;;16.02;;
58643;SDS011;44411;49.994;8.660;2023-03-01T22:23:29;23.10;;;15.85;;
58643;SDS011;44411;49.994;8.660;2023-03-01T22:25:55;21.38;;;15.18;;
58643;SDS011;44411;49.994;8.660;2023-03-01T22:28:20;21.10;;;14.32;;
58643;SDS011;44411;49.994;8.660;2023-03-01T22:30:46;22.73;;;14.07;;
58643;SDS011;44411;49.994;8.660;2023-03-01T22:33:11;19.42;;;12.88;;
58643;SDS011;44411;49.994;8.660;2023-03-01T22:35:39;20.30;;;13.77;;
58643;SDS011;44411;49.994;8.660;2023-03-01T22:38:05;21.65;;;13.38;;
58643;SDS011;44411;49.994;8.660;2023-03-01T22:40:31;19.05;;;14.40;;
58643;SDS011;44411;49.994;8.660;2023-03-01T22:42:56;22.83;;;14.50;;
58643;SDS011;44411;49.994;8.660;2023-03-01T22:45:21;23.17;;;15.05;;
58643;SDS011;44411;49.994;8.660;2023-03-01T22:47:47;21.42;;;13.88;;
58643;SDS011;44411;49.994;8.660;2023-03-01T22:50:13;18.75;;;13.73;;
58643;SDS011;44411;49.994;8.660;2023-03-01T22:52:39;21.92;;;13.75;;
58643;SDS011;44411;49.994;8.660;2023-03-01T22:55:05;20.58;;;13.43;;
58643;SDS011;44411;49.994;8.660;2023-03-01T22:57:31;22.88;;;13.23;;
58643;SDS011;44411;49.994;8.660;2023-03-01T22:59:56;21.20;;;14.13;;
58643;SDS011;44411;49.994;8.660;2023-03-01T23:02:22;22.33;;;14.35;;
58643;SDS011;44411;49.994;8.660;2023-03-01T23:04:49;22.73;;;14.25;;
58643;SDS011;44411;49.994;8.660;2023-03-01T23:07:14;22.83;;;14.40;;
58643;SDS011;44411;49.994;8.660;2023-03-01T23:09:40;21.70;;;15.45;;
58643;SDS011;44411;49.994;8.660;2023-03-01T23:12:05;21.55;;;14.65;;
58643;SDS011;44411;49.994;8.660;2023-03-01T23:14:33;21.42;;;14.00;;
58643;SDS011;44411;49.994;8.660;2023-03-01T23:16:59;20.95;;;14.77;;
58643;SDS011;44411;49.994;8.660;2023-03-01T23:19:25;23.88;;;14.63;;
58643;SDS011;44411;49.994;8.660;2023-03-01T23:21:50;20.08;;;14.55;;
58643;SDS011;44411;49.994;8.660;2023-03-01T23:24:18;21.25;;;14.25;;
58643;SDS011;44411;49.994;8.660;2023-03-01T23:26:46;24.73;;;15.35;;
58643;SDS011;44411;49.994;8.660;2023-03-01T23:29:17;21.27;;;14.13;;
58643;SDS011;44411;49.994;8.660;2023-03-01T23:31:43;21.35;;;13.73;;
58643;SDS011;44411;49.994;8.660;2023-03-01T23:34:09;22.17;;;14.02;;
58643;SDS011;44411;49.994;8.660;2023-03-01T23:36:34;19.48;;;13.40;;
58643;SDS011;44411;49.994;8.660;2023-03-01T23:39:04;21.70;;;14.25;;
58643;SDS011;44411;49.994;8.660;2023-03-01T23:41:31;22.42;;;14.50;;
58643;SDS011;44411;49.994;8.660;2023-03-01T23:43:59;24.58;;;15.38;;
58643;SDS011;44411;49.994;8.660;2023-03-01T23:46:27;21.85;;;14.15;;
58643;SDS011;44411;49.994;8.660;2023-03-01T23:48:54;23.15;;;13.98;;
58643;SDS011;44411;49.994;8.660;2023-03-01T23:51:19;23.38;;;15.45;;
58643;SDS011;44411;49.994;8.660;2023-03-01T23:53:47;25.10;;;14.18;;
58643;SDS011;44411;49.994;8.660;2023-03-01T23:56:22;20.95;;;13.80;;
58643;SDS011;44411;49.994;8.660;2023-03-01T23:58:56;21.58;;;12.85;;
